Time;durP1;ratioP1;P1;durP2;ratioP2;P2;SDS_P1;SDS_P2;PMS_P1;PMS_P2;Temp;Humidity;BMP_temperature;BMP_pressure;BME280_temperature;BME280_humidity;BME280_pressure;Samples;Min_cycle;Max_cycle;Signal;HPM_P1;HPM_P2
2021/07/24 00:01:14;;;;;;;14.73;4.90;;;;;;;-145.18;100.00;60484.78;5074070;28;20492;-68
2021/07/24 00:03:40;;;;;;;13.03;5.07;;;;;;;-145.18;100.00;60484.78;5080628;28;20039;-69
2021/07/24 00:06:06;;;;;;;15.47;6.13;;;;;;;-145.18;100.00;60484.78;5073513;28;20681;-68
2021/07/24 00:08:32;;;;;;;11.90;4.53;;;;;;;-145.18;100.00;60484.78;5072365;28;20101;-69
2021/07/24 00:11:05;;;;;;;13.90;5.03;;;;;;;-145.18;100.00;60484.78;5078479;28;20028;-68
2021/07/24 00:13:34;;;;;;;14.60;5.03;;;;;;;-145.18;100.00;60484.78;5069671;28;20138;-68
2021/07/24 00:16:00;;;;;;;13.93;5.50;;;;;;;-145.18;100.00;60484.78;5074647;28;20091;-68
2021/07/24 00:18:26;;;;;;;18.13;5.57;;;;;;;-145.18;100.00;60484.78;5079324;28;20390;-68
2021/07/24 00:20:51;;;;;;;17.87;5.33;;;;;;;-145.18;100.00;60484.78;5077789;28;20114;-68
2021/07/24 00:23:17;;;;;;;14.93;5.30;;;;;;;-145.18;100.00;60484.78;5081048;28;20070;-68
2021/07/24 00:25:42;;;;;;;15.83;5.37;;;;;;;-145.18;100.00;60484.78;5078346;28;20094;-69
2021/07/24 00:28:08;;;;;;;15.77;5.77;;;;;;;-145.18;100.00;60484.78;5083534;28;20094;-68
2021/07/24 00:30:41;;;;;;;18.03;5.47;;;;;;;-145.18;100.00;60484.78;5083744;28;20020;-68
2021/07/24 00:33:08;;;;;;;13.63;4.70;;;;;;;-145.18;100.00;60484.78;5080381;28;20431;-68
2021/07/24 00:35:34;;;;;;;15.83;5.80;;;;;;;-145.18;100.00;60484.78;5080388;28;20042;-68
2021/07/24 00:38:01;;;;;;;17.97;5.20;;;;;;;-145.18;100.00;60484.78;5084237;28;20103;-68
2021/07/24 00:40:29;;;;;;;16.40;6.10;;;;;;;-145.18;100.00;60484.78;5081839;28;20453;-68
2021/07/24 00:42:57;;;;;;;16.10;5.70;;;;;;;-145.18;100.00;60484.78;5083283;28;20573;-68
2021/07/24 00:45:25;;;;;;;18.57;5.83;;;;;;;-145.18;100.00;60484.78;5081744;28;20028;-68
2021/07/24 00:47:54;;;;;;;18.60;6.17;;;;;;;-145.18;100.00;60484.78;5081622;28;20062;-68
2021/07/24 00:50:20;;;;;;;14.97;5.67;;;;;;;-145.18;100.00;60484.78;5081473;28;20159;-68
2021/07/24 00:52:45;;;;;;;15.13;5.60;;;;;;;-145.18;100.00;60484.78;5084394;28;20039;-68
2021/07/24 00:55:14;;;;;;;14.70;5.07;;;;;;;-145.18;100.00;60484.78;5081387;28;20028;-68
2021/07/24 00:57:41;;;;;;;16.27;5.53;;;;;;;-145.18;100.00;60484.78;5080648;28;20035;-69
2021/07/24 01:00:08;;;;;;;17.53;5.30;;;;;;;-145.18;100.00;60484.78;5080888;28;20130;-68
2021/07/24 01:02:34;;;;;;;15.70;5.43;;;;;;;-145.18;100.00;60484.78;5085955;28;20104;-70
2021/07/24 01:05:02;;;;;;;18.70;5.93;;;;;;;-145.18;100.00;60484.78;5079463;28;20039;-70
2021/07/24 01:07:29;;;;;;;14.03;5.17;;;;;;;-145.18;100.00;60484.78;5086879;28;20100;-70
2021/07/24 01:09:57;;;;;;;19.27;6.10;;;;;;;-145.18;100.00;60484.78;5083714;28;20085;-70
2021/07/24 01:12:23;;;;;;;17.37;6.27;;;;;;;-145.18;100.00;60484.78;5085734;28;20114;-70
2021/07/24 01:14:49;;;;;;;17.50;6.33;;;;;;;-145.18;100.00;60484.78;5039926;28;1195416;-70
2021/07/24 01:17:15;;;;;;;18.87;6.17;;;;;;;-145.18;100.00;60484.78;5085247;28;20088;-70
2021/07/24 01:19:40;;;;;;;15.87;6.03;;;;;;;-145.18;100.00;60484.78;5080115;28;20028;-70
2021/07/24 01:22:06;;;;;;;18.10;6.60;;;;;;;-145.18;100.00;60484.78;5084951;28;20468;-70
2021/07/24 01:24:31;;;;;;;19.50;5.90;;;;;;;-145.18;100.00;60484.78;5084787;28;20285;-70
2021/07/24 01:26:57;;;;;;;19.87;5.70;;;;;;;-145.18;100.00;60484.78;5084029;28;20249;-70
2021/07/24 01:29:23;;;;;;;17.73;5.50;;;;;;;-145.18;100.00;60484.78;5082371;28;20264;-70
2021/07/24 01:31:49;;;;;;;16.77;6.10;;;;;;;-145.18;100.00;60484.78;5081703;28;20024;-70
2021/07/24 01:34:15;;;;;;;19.73;5.27;;;;;;;-145.18;100.00;60484.78;5084605;28;20185;-70
2021/07/24 01:36:40;;;;;;;19.43;6.40;;;;;;;-145.18;100.00;60484.78;5081962;28;20103;-70
2021/07/24 01:39:07;;;;;;;18.63;6.40;;;;;;;-145.18;100.00;60484.78;5085312;28;20023;-70
2021/07/24 01:41:33;;;;;;;14.60;5.37;;;;;;;-145.18;100.00;60484.78;5081647;28;20016;-70
2021/07/24 01:43:58;;;;;;;18.70;6.50;;;;;;;-145.18;100.00;60484.78;5083527;28;20039;-70
2021/07/24 01:46:24;;;;;;;18.13;5.70;;;;;;;-145.18;100.00;60484.78;5081569;28;20604;-70
2021/07/24 01:49:04;;;;;;;19.77;6.30;;;;;;;-145.18;100.00;60484.78;5083437;28;20036;-70
2021/07/24 01:54:33;;;;;;;22.33;6.67;;;;;;;-145.18;100.00;60484.78;5085234;28;20420;-70
2021/07/24 01:57:04;;;;;;;20.43;6.47;;;;;;;-145.18;100.00;60484.78;5086550;28;20020;-70
2021/07/24 01:59:34;;;;;;;18.67;6.18;;;;;;;-145.18;100.00;60484.78;5084565;28;20032;-70
2021/07/24 02:02:01;;;;;;;22.17;6.33;;;;;;;-145.18;100.00;60484.78;5086400;28;20031;-70
2021/07/24 02:04:29;;;;;;;24.93;7.57;;;;;;;-145.18;100.00;60484.78;5087244;28;20025;-70
2021/07/24 02:06:55;;;;;;;17.53;6.17;;;;;;;-145.18;100.00;60484.78;5085359;28;20054;-70
2021/07/24 02:09:21;;;;;;;21.17;6.53;;;;;;;-145.18;100.00;60484.78;5087105;28;20024;-70
2021/07/24 02:11:46;;;;;;;21.63;6.63;;;;;;;-145.18;100.00;60484.78;5084088;28;20457;-70
2021/07/24 02:14:12;;;;;;;22.27;7.00;;;;;;;-145.18;100.00;60484.78;5092824;28;20027;-70
2021/07/24 02:16:40;;;;;;;19.03;6.90;;;;;;;-145.18;100.00;60484.78;5084224;28;20059;-70
2021/07/24 02:19:06;;;;;;;16.90;6.27;;;;;;;-145.18;100.00;60484.78;5092967;28;20700;-70
2021/07/24 02:21:32;;;;;;;20.13;6.27;;;;;;;-145.18;100.00;60484.78;5084111;28;20497;-70
2021/07/24 02:23:58;;;;;;;23.87;6.50;;;;;;;-145.18;100.00;60484.78;5085006;28;20028;-70
2021/07/24 02:26:23;;;;;;;22.40;6.33;;;;;;;-145.18;100.00;60484.78;5084398;28;20523;-70
2021/07/24 02:28:49;;;;;;;19.70;6.67;;;;;;;-145.18;100.00;60484.78;5085299;28;20476;-70
2021/07/24 02:31:14;;;;;;;21.80;6.37;;;;;;;-145.18;100.00;60484.78;5084933;28;20019;-68
2021/07/24 02:33:40;;;;;;;21.40;7.00;;;;;;;-145.18;100.00;60484.78;5086700;28;20028;-68
2021/07/24 02:36:05;;;;;;;22.20;6.53;;;;;;;-145.18;100.00;60484.78;5083648;28;20047;-68
2021/07/24 02:38:31;;;;;;;22.43;6.90;;;;;;;-145.18;100.00;60484.78;5088213;28;20036;-68
2021/07/24 02:40:56;;;;;;;19.50;6.00;;;;;;;-145.18;100.00;60484.78;5083973;28;20039;-68
2021/07/24 02:43:22;;;;;;;17.90;6.40;;;;;;;-145.18;100.00;60484.78;5085990;28;20489;-68
2021/07/24 02:45:47;;;;;;;27.60;6.70;;;;;;;-145.18;100.00;60484.78;5084260;28;20035;-68
2021/07/24 02:48:13;;;;;;;18.50;7.00;;;;;;;-145.18;100.00;60484.78;5085288;28;20032;-68
2021/07/24 02:50:39;;;;;;;20.83;7.07;;;;;;;-145.18;100.00;60484.78;5083959;28;20665;-68
2021/07/24 02:53:04;;;;;;;21.13;6.57;;;;;;;-145.18;100.00;60484.78;5084544;28;20044;-68
2021/07/24 02:55:30;;;;;;;24.43;6.80;;;;;;;-145.18;100.00;60484.78;5083663;28;20028;-68
2021/07/24 02:57:55;;;;;;;22.20;6.57;;;;;;;-145.18;100.00;60484.78;5085298;28;20108;-68
2021/07/24 03:00:21;;;;;;;25.60;6.83;;;;;;;-145.18;100.00;60484.78;5083419;28;20031;-68
2021/07/24 03:02:46;;;;;;;28.27;7.50;;;;;;;-145.18;100.00;60484.78;5086141;28;20028;-68
2021/07/24 03:05:15;;;;;;;19.87;5.80;;;;;;;-145.18;100.00;60484.78;5082280;28;20026;-68
2021/07/24 03:07:41;;;;;;;23.23;7.17;;;;;;;-145.18;100.00;60484.78;5083604;28;20075;-68
2021/07/24 03:10:07;;;;;;;26.03;7.63;;;;;;;-145.18;100.00;60484.78;5083825;28;20444;-68
2021/07/24 03:12:32;;;;;;;24.30;6.40;;;;;;;-145.18;100.00;60484.78;5085476;28;20055;-68
2021/07/24 03:14:58;;;;;;;26.33;7.57;;;;;;;-145.18;100.00;60484.78;5083181;28;20099;-68
2021/07/24 03:17:26;;;;;;;27.90;7.40;;;;;;;-145.18;100.00;60484.78;5088675;28;20500;-68
2021/07/24 03:19:51;;;;;;;23.07;6.60;;;;;;;-145.18;100.00;60484.78;5087250;28;20024;-68
2021/07/24 03:22:20;;;;;;;22.73;6.73;;;;;;;-145.18;100.00;60484.78;5087838;28;20023;-68
2021/07/24 03:24:45;;;;;;;26.97;7.10;;;;;;;-145.18;100.00;60484.78;5087015;28;20031;-68
2021/07/24 03:27:11;;;;;;;26.33;7.83;;;;;;;-145.18;100.00;60484.78;5085112;28;20028;-68
2021/07/24 03:29:36;;;;;;;24.63;6.73;;;;;;;-145.18;100.00;60484.78;5082905;28;20464;-68
2021/07/24 03:32:02;;;;;;;24.90;7.13;;;;;;;-145.18;100.00;60484.78;5085734;28;20115;-68
2021/07/24 03:34:28;;;;;;;23.67;6.80;;;;;;;-145.18;100.00;60484.78;5082255;28;20031;-68
2021/07/24 03:36:53;;;;;;;25.17;6.37;;;;;;;-145.18;100.00;60484.78;5083856;28;20031;-68
2021/07/24 03:39:19;;;;;;;27.63;7.27;;;;;;;-145.18;100.00;60484.78;5083556;28;20652;-68
2021/07/24 03:41:44;;;;;;;27.43;7.20;;;;;;;-145.18;100.00;60484.78;5082739;28;20042;-68
2021/07/24 03:44:09;;;;;;;20.80;6.47;;;;;;;-145.18;100.00;60484.78;5084860;28;20065;-68
2021/07/24 03:46:35;;;;;;;27.30;7.37;;;;;;;-145.18;100.00;60484.78;5083071;28;20027;-68
2021/07/24 03:49:00;;;;;;;21.27;5.97;;;;;;;-145.18;100.00;60484.78;5083413;28;20035;-68
2021/07/24 03:51:26;;;;;;;22.70;7.23;;;;;;;-145.18;100.00;60484.78;5082664;28;20420;-68
2021/07/24 03:53:51;;;;;;;23.67;6.50;;;;;;;-145.18;100.00;60484.78;5084138;28;20074;-69
2021/07/24 03:56:20;;;;;;;23.50;6.37;;;;;;;-145.18;100.00;60484.78;5079489;28;20020;-68
2021/07/24 03:58:49;;;;;;;23.97;7.03;;;;;;;-145.18;100.00;60484.78;5082681;28;20052;-68
2021/07/24 04:01:15;;;;;;;23.33;7.77;;;;;;;-145.18;100.00;60484.78;5082591;28;20105;-68
2021/07/24 04:03:41;;;;;;;19.97;6.27;;;;;;;-145.18;100.00;60484.78;5092610;28;20024;-68
2021/07/24 04:06:08;;;;;;;21.43;6.57;;;;;;;-145.18;100.00;60484.78;5082455;28;20542;-68
2021/07/24 04:08:35;;;;;;;21.70;6.83;;;;;;;-145.18;100.00;60484.78;5092687;28;20580;-68
2021/07/24 04:11:03;;;;;;;22.00;7.07;;;;;;;-145.18;100.00;60484.78;5082761;28;20024;-68
2021/07/24 04:13:29;;;;;;;23.00;6.97;;;;;;;-145.18;100.00;60484.78;5084101;28;20420;-68
2021/07/24 04:15:54;;;;;;;18.83;6.10;;;;;;;-145.18;100.00;60484.78;5082684;28;20048;-68
2021/07/24 04:18:24;;;;;;;18.53;6.23;;;;;;;-145.18;100.00;60484.78;5083411;28;20028;-68
2021/07/24 04:20:50;;;;;;;22.63;7.50;;;;;;;-145.18;100.00;60484.78;5082244;28;20565;-68
2021/07/24 04:23:15;;;;;;;18.87;6.17;;;;;;;-145.18;100.00;60484.78;5090134;28;20086;-68
2021/07/24 04:25:41;;;;;;;19.33;6.53;;;;;;;-145.18;100.00;60484.78;5082421;28;20078;-68
2021/07/24 04:28:06;;;;;;;18.30;6.37;;;;;;;-145.18;100.00;60484.78;5083250;28;20058;-68
2021/07/24 04:30:34;;;;;;;16.07;6.17;;;;;;;-145.18;100.00;60484.78;5082071;28;20408;-68
2021/07/24 04:32:59;;;;;;;18.20;6.30;;;;;;;-145.18;100.00;60484.78;5082367;28;20511;-67
2021/07/24 04:35:25;;;;;;;18.50;5.73;;;;;;;-145.18;100.00;60484.78;5082529;28;20035;-67
2021/07/24 04:37:50;;;;;;;17.37;5.93;;;;;;;-145.18;100.00;60484.78;5087820;28;20024;-67
2021/07/24 04:40:16;;;;;;;16.50;5.73;;;;;;;-145.18;100.00;60484.78;5082380;28;20032;-67
2021/07/24 04:42:41;;;;;;;15.50;5.90;;;;;;;-145.18;100.00;60484.78;5084068;28;20051;-69
2021/07/24 04:45:07;;;;;;;17.57;5.80;;;;;;;-145.18;100.00;60484.78;5081997;28;20024;-70
2021/07/24 04:47:33;;;;;;;14.23;5.57;;;;;;;-145.18;100.00;60484.78;5084943;28;20047;-69
2021/07/24 04:49:58;;;;;;;15.23;5.70;;;;;;;-145.18;100.00;60484.78;5082082;28;20050;-70
2021/07/24 04:52:24;;;;;;;15.37;5.47;;;;;;;-145.18;100.00;60484.78;5081757;28;20027;-69
2021/07/24 04:54:50;;;;;;;13.90;5.43;;;;;;;-145.18;100.00;60484.78;5081707;28;20032;-69
2021/07/24 04:57:17;;;;;;;14.23;5.03;;;;;;;-145.18;100.00;60484.78;5082201;28;20093;-70
2021/07/24 04:59:47;;;;;;;16.40;5.60;;;;;;;-145.18;100.00;60484.78;5081736;28;20021;-69
2021/07/24 05:02:18;;;;;;;13.47;5.40;;;;;;;-145.18;100.00;60484.78;5081779;28;20028;-70
2021/07/24 05:04:45;;;;;;;14.40;5.30;;;;;;;-145.18;100.00;60484.78;5081028;28;20024;-69
2021/07/24 05:07:11;;;;;;;14.47;4.70;;;;;;;-145.18;100.00;60484.78;5080489;28;20106;-69
2021/07/24 05:09:38;;;;;;;13.73;5.43;;;;;;;-145.18;100.00;60484.78;5078723;28;20384;-69
2021/07/24 05:12:04;;;;;;;10.93;4.67;;;;;;;-145.18;100.00;60484.78;5081296;28;20039;-69
2021/07/24 05:14:29;;;;;;;14.47;5.57;;;;;;;-145.18;100.00;60484.78;5085727;28;20048;-69
2021/07/24 05:17:06;;;;;;;12.63;5.00;;;;;;;-145.18;100.00;60484.78;5078767;28;20304;-69
2021/07/24 05:19:35;;;;;;;14.77;5.30;;;;;;;-145.18;100.00;60484.78;5085745;28;20028;-69
2021/07/24 05:22:01;;;;;;;14.47;4.23;;;;;;;-145.18;100.00;60484.78;5082309;28;20032;-69
2021/07/24 05:24:27;;;;;;;12.40;4.90;;;;;;;-145.18;100.00;60484.78;5082078;28;20429;-69
2021/07/24 05:26:52;;;;;;;15.23;4.97;;;;;;;-145.18;100.00;60484.78;5083053;28;20115;-69
2021/07/24 05:29:18;;;;;;;15.90;4.67;;;;;;;-145.18;100.00;60484.78;5083059;28;20453;-69
2021/07/24 05:31:45;;;;;;;12.20;4.60;;;;;;;-145.18;100.00;60484.78;5068574;28;20365;-69
2021/07/24 05:34:10;;;;;;;12.73;4.93;;;;;;;-145.18;100.00;60484.78;5088310;28;20173;-69
2021/07/24 05:36:36;;;;;;;11.87;4.57;;;;;;;-145.18;100.00;60484.78;5069821;28;20578;-69
2021/07/24 05:39:01;;;;;;;10.43;4.40;;;;;;;-145.18;100.00;60484.78;5086815;28;20039;-69
2021/07/24 05:41:27;;;;;;;11.40;3.97;;;;;;;-145.18;100.00;60484.78;5081652;28;20024;-69
2021/07/24 05:43:52;;;;;;;10.97;4.40;;;;;;;-145.18;100.00;60484.78;5085949;28;20086;-69
2021/07/24 05:46:18;;;;;;;10.07;3.97;;;;;;;-145.18;100.00;60484.78;5081705;28;20035;-69
2021/07/24 05:48:43;;;;;;;9.77;4.20;;;;;;;-145.18;100.00;60484.78;5085185;28;20595;-70
2021/07/24 05:51:08;;;;;;;11.43;4.40;;;;;;;-145.18;100.00;60484.78;5078184;28;20077;-69
2021/07/24 05:53:34;;;;;;;9.53;4.43;;;;;;;-145.18;100.00;60484.78;5084223;28;20513;-69
2021/07/24 05:56:00;;;;;;;10.90;4.23;;;;;;;-145.18;100.00;60484.78;5081523;28;20153;-69
2021/07/24 05:58:26;;;;;;;8.20;3.87;;;;;;;-145.18;100.00;60484.78;5083247;28;20549;-70
2021/07/24 06:00:51;;;;;;;9.50;4.13;;;;;;;-145.18;100.00;60484.78;5080571;28;20028;-69
2021/07/24 06:03:17;;;;;;;10.70;4.90;;;;;;;-145.18;100.00;60484.78;5082244;28;20040;-71
2021/07/24 06:05:42;;;;;;;9.87;4.03;;;;;;;-145.18;100.00;60484.78;5082715;28;20031;-72
2021/07/24 06:08:08;;;;;;;17.20;4.27;;;;;;;-145.18;100.00;60484.78;5093772;28;20314;-72
2021/07/24 06:10:33;;;;;;;9.77;4.60;;;;;;;-145.18;100.00;60484.78;5082913;28;20035;-72
2021/07/24 06:12:59;;;;;;;11.47;4.03;;;;;;;-145.18;100.00;60484.78;5093965;28;20032;-72
2021/07/24 06:15:24;;;;;;;10.43;4.47;;;;;;;-145.18;100.00;60484.78;5086157;28;20056;-70
2021/07/24 06:17:50;;;;;;;10.88;4.13;;;;;;;-145.18;100.00;60484.78;5097627;28;20077;-70
2021/07/24 06:20:15;;;;;;;7.60;3.22;;;;;;;-145.18;100.00;60484.78;5084769;28;20435;-70
2021/07/24 06:22:41;;;;;;;7.72;3.38;;;;;;;-145.18;100.00;60484.78;5089116;28;20102;-70
2021/07/24 06:25:07;;;;;;;7.28;3.22;;;;;;;-145.18;100.00;60484.78;5082579;28;20032;-71
2021/07/24 06:27:35;;;;;;;8.02;3.85;;;;;;;-145.18;100.00;60484.78;5080023;28;20035;-71
2021/07/24 06:30:00;;;;;;;7.90;3.65;;;;;;;-145.18;100.00;60484.78;5081388;28;20024;-71
2021/07/24 06:32:26;;;;;;;8.20;3.33;;;;;;;-145.18;100.00;60484.78;5086357;28;20518;-71
2021/07/24 06:34:51;;;;;;;7.90;3.47;;;;;;;-145.18;100.00;60484.78;5082536;28;20218;-71
2021/07/24 06:37:17;;;;;;;8.70;3.30;;;;;;;-145.18;100.00;60484.78;5081979;28;20346;-71
2021/07/24 06:39:42;;;;;;;7.25;2.70;;;;;;;-145.18;100.00;60484.78;5081061;28;20028;-71
2021/07/24 06:42:09;;;;;;;8.20;3.83;;;;;;;-145.18;100.00;60484.78;5083316;28;20411;-71
2021/07/24 06:44:34;;;;;;;8.70;3.78;;;;;;;-145.18;100.00;60484.78;5082394;28;20031;-71
2021/07/24 06:47:00;;;;;;;8.93;3.70;;;;;;;-145.18;100.00;60484.78;5083997;28;20020;-71
2021/07/24 06:49:25;;;;;;;6.25;3.20;;;;;;;-145.18;100.00;60484.78;5089090;28;20020;-70
2021/07/24 06:51:51;;;;;;;6.68;3.00;;;;;;;-145.18;100.00;60484.78;5094376;28;20051;-70
2021/07/24 06:54:16;;;;;;;7.70;3.15;;;;;;;-145.18;100.00;60484.78;5090374;28;20020;-71
2021/07/24 06:56:41;;;;;;;8.02;2.97;;;;;;;-145.18;100.00;60484.78;5088967;28;20389;-71
2021/07/24 06:59:07;;;;;;;6.65;2.78;;;;;;;-145.18;100.00;60484.78;5096252;28;20219;-71
2021/07/24 07:01:32;;;;;;;6.65;3.20;;;;;;;-145.18;100.00;60484.78;5088092;28;20024;-71
2021/07/24 07:03:58;;;;;;;5.88;3.08;;;;;;;-145.18;100.00;60484.78;5088268;28;20032;-71
2021/07/24 07:06:23;;;;;;;5.70;2.72;;;;;;;-145.18;100.00;60484.78;5092957;28;20092;-70
2021/07/24 07:08:49;;;;;;;5.75;2.92;;;;;;;-145.18;100.00;60484.78;5100092;28;20036;-71
2021/07/24 07:11:14;;;;;;;7.53;3.00;;;;;;;-145.18;100.00;60484.78;5086615;28;20031;-71
2021/07/24 07:13:40;;;;;;;6.30;2.88;;;;;;;-145.18;100.00;60484.78;5096244;28;20024;-71
2021/07/24 07:16:06;;;;;;;5.70;2.88;;;;;;;-145.18;100.00;60484.78;5086951;28;20048;-71
2021/07/24 07:18:32;;;;;;;6.75;2.40;;;;;;;-145.18;100.00;60484.78;5097530;28;20020;-71
2021/07/24 07:20:58;;;;;;;5.00;2.42;;;;;;;-145.18;100.00;60484.78;5086034;28;20487;-71
2021/07/24 07:23:27;;;;;;;13.35;2.70;;;;;;;-145.18;100.00;60484.78;5086765;28;20461;-71
2021/07/24 07:25:52;;;;;;;8.13;2.67;;;;;;;-145.18;100.00;60484.78;5086702;28;20027;-71
2021/07/24 07:28:18;;;;;;;5.57;2.78;;;;;;;-145.18;100.00;60484.78;5100836;28;20171;-71
2021/07/24 07:30:43;;;;;;;7.25;2.97;;;;;;;-145.18;100.00;60484.78;5087562;28;20039;-71
2021/07/24 07:33:09;;;;;;;6.45;2.92;;;;;;;-145.18;100.00;60484.78;5088717;28;20027;-71
2021/07/24 07:35:34;;;;;;;6.18;3.20;;;;;;;-145.18;100.00;60484.78;5084620;28;20028;-71
2021/07/24 07:38:00;;;;;;;5.63;2.53;;;;;;;-145.18;100.00;60484.78;5091272;28;20028;-71
2021/07/24 07:40:25;;;;;;;7.38;2.47;;;;;;;-145.18;100.00;60484.78;5084516;28;20374;-71
2021/07/24 07:42:51;;;;;;;5.13;2.28;;;;;;;-145.18;100.00;60484.78;5089679;28;20182;-72
2021/07/24 07:45:17;;;;;;;4.50;2.20;;;;;;;-145.18;100.00;60484.78;5084298;28;20019;-71
2021/07/24 07:47:43;;;;;;;5.60;2.58;;;;;;;-145.18;100.00;60484.78;5091775;28;20024;-71
2021/07/24 07:50:09;;;;;;;6.38;2.08;;;;;;;-145.18;100.00;60484.78;5084181;28;20024;-72
2021/07/24 07:52:35;;;;;;;8.73;2.70;;;;;;;-145.18;100.00;60484.78;5088551;28;20024;-71
2021/07/24 07:55:00;;;;;;;4.90;2.28;;;;;;;-145.18;100.00;60484.78;5083789;28;20012;-71
2021/07/24 07:57:26;;;;;;;4.85;2.50;;;;;;;-145.18;100.00;60484.78;5082390;28;20539;-71
2021/07/24 07:59:52;;;;;;;5.00;2.50;;;;;;;-145.18;100.00;60484.78;5079944;28;20024;-71
2021/07/24 08:02:18;;;;;;;6.47;2.45;;;;;;;-145.18;100.00;60484.78;5077472;28;20273;-71
2021/07/24 08:04:43;;;;;;;6.63;2.20;;;;;;;-145.18;100.00;60484.78;5079779;28;20024;-71
2021/07/24 08:07:09;;;;;;;4.93;2.05;;;;;;;-145.18;100.00;60484.78;5079934;28;20058;-72
2021/07/24 08:09:34;;;;;;;4.82;2.20;;;;;;;-145.18;100.00;60484.78;5079638;28;20107;-72
2021/07/24 08:12:00;;;;;;;7.45;2.47;;;;;;;-145.18;100.00;60484.78;5081541;28;20460;-71
2021/07/24 08:14:25;;;;;;;12.38;2.10;;;;;;;-145.18;100.00;60484.78;5087367;28;20144;-72
2021/07/24 08:16:51;;;;;;;4.57;2.08;;;;;;;-145.18;100.00;60484.78;5080063;28;20040;-72
2021/07/24 08:19:16;;;;;;;5.40;1.90;;;;;;;-145.18;100.00;60484.78;5087535;28;20204;-72
2021/07/24 08:21:42;;;;;;;5.03;2.20;;;;;;;-145.18;100.00;60484.78;5080511;28;20034;-71
2021/07/24 08:24:07;;;;;;;4.68;2.13;;;;;;;-145.18;100.00;60484.78;5089757;28;20117;-72
2021/07/24 08:26:33;;;;;;;3.58;1.88;;;;;;;-145.18;100.00;60484.78;5082384;28;20028;-72
2021/07/24 08:28:59;;;;;;;4.57;2.10;;;;;;;-145.18;100.00;60484.78;5093639;28;20039;-72
2021/07/24 08:31:24;;;;;;;6.15;2.40;;;;;;;-145.18;100.00;60484.78;5085202;28;20381;-72
2021/07/24 08:33:50;;;;;;;4.78;2.30;;;;;;;-145.18;100.00;60484.78;5090469;28;20273;-72
2021/07/24 08:36:15;;;;;;;4.32;1.88;;;;;;;-145.18;100.00;60484.78;5082451;28;20061;-72
2021/07/24 08:38:41;;;;;;;4.07;1.90;;;;;;;-145.18;100.00;60484.78;5088396;28;20097;-71
2021/07/24 08:41:07;;;;;;;4.72;2.40;;;;;;;-145.18;100.00;60484.78;5083266;28;20150;-71
2021/07/24 08:43:32;;;;;;;4.10;2.17;;;;;;;-145.18;100.00;60484.78;5090302;28;20031;-72
2021/07/24 08:45:58;;;;;;;7.72;2.10;;;;;;;-145.18;100.00;60484.78;5085379;28;20028;-72
2021/07/24 08:48:24;;;;;;;18.42;2.50;;;;;;;-145.18;100.00;60484.78;5085522;28;20031;-72
2021/07/24 08:50:53;;;;;;;4.53;2.40;;;;;;;-145.18;100.00;60484.78;5083588;28;20103;-72
2021/07/24 08:53:23;;;;;;;5.53;2.15;;;;;;;-145.18;100.00;60484.78;5083156;28;20027;-72
2021/07/24 08:55:57;;;;;;;6.03;2.72;;;;;;;-145.18;100.00;60484.78;5082959;28;20067;-72
2021/07/24 08:58:23;;;;;;;4.93;2.33;;;;;;;-145.18;100.00;60484.78;5089434;28;20063;-72
2021/07/24 09:00:48;;;;;;;6.43;2.20;;;;;;;-145.18;100.00;60484.78;5084548;28;20020;-72
2021/07/24 09:03:18;;;;;;;6.22;2.22;;;;;;;-145.18;100.00;60484.78;5085183;28;20035;-72
2021/07/24 09:05:50;;;;;;;6.45;2.55;;;;;;;-145.18;100.00;60484.78;5083816;28;20267;-72
2021/07/24 09:08:17;;;;;;;4.20;2.17;;;;;;;-145.18;100.00;60484.78;5097701;28;20031;-72
2021/07/24 09:10:45;;;;;;;6.07;2.17;;;;;;;-145.18;100.00;60484.78;5082934;28;20072;-71
2021/07/24 09:13:10;;;;;;;9.07;2.58;;;;;;;-145.18;100.00;60484.78;5091106;28;20039;-70
2021/07/24 09:15:36;;;;;;;6.75;2.40;;;;;;;-145.18;100.00;60484.78;5082100;28;20048;-71
2021/07/24 09:18:01;;;;;;;9.02;2.72;;;;;;;-145.18;100.00;60484.78;5090983;28;20055;-70
2021/07/24 09:20:27;;;;;;;5.75;2.28;;;;;;;-145.18;100.00;60484.78;5082037;28;20059;-70
2021/07/24 09:22:54;;;;;;;6.40;2.40;;;;;;;-145.18;100.00;60484.78;5084563;28;20032;-70
2021/07/24 09:25:21;;;;;;;4.70;2.30;;;;;;;-145.18;100.00;60484.78;5081769;28;20032;-71
2021/07/24 09:28:00;;;;;;;4.75;2.33;;;;;;;-145.18;100.00;60484.78;5081739;28;20369;-70
2021/07/24 09:30:33;;;;;;;5.30;2.40;;;;;;;-145.18;100.00;60484.78;5080962;28;20024;-71
2021/07/24 09:33:09;;;;;;;5.95;2.40;;;;;;;-145.18;100.00;60484.78;5087450;28;20288;-72
2021/07/24 09:35:40;;;;;;;4.97;2.20;;;;;;;-145.18;100.00;60484.78;5081241;28;20527;-71
2021/07/24 09:38:13;;;;;;;8.60;2.50;;;;;;;-145.18;100.00;60484.78;5073296;28;20488;-71
2021/07/24 09:40:40;;;;;;;4.25;2.28;;;;;;;-145.18;100.00;60484.78;5081533;28;20020;-71
2021/07/24 09:43:41;;;;;;;8.32;2.47;;;;;;;-145.18;100.00;60484.78;5082565;28;20496;-71
2021/07/24 09:46:34;;;;;;;6.17;2.03;;;;;;;-145.18;100.00;60484.78;5080180;28;20181;-71
2021/07/24 09:49:11;;;;;;;5.70;2.60;;;;;;;-145.18;100.00;60484.78;5078991;28;20028;-71
2021/07/24 09:51:48;;;;;;;5.50;2.40;;;;;;;-145.18;100.00;60484.78;5081707;28;20027;-73
2021/07/24 09:54:28;;;;;;;11.45;2.50;;;;;;;-145.18;100.00;60484.78;5080370;28;20032;-71
2021/07/24 09:56:56;;;;;;;4.43;2.20;;;;;;;-145.18;100.00;60484.78;5078903;28;20028;-71
2021/07/24 09:59:32;;;;;;;7.15;2.55;;;;;;;-145.18;100.00;60484.78;5081963;28;20036;-71
2021/07/24 10:02:03;;;;;;;8.85;2.50;;;;;;;-145.18;100.00;60484.78;5082694;28;20024;-71
2021/07/24 10:04:39;;;;;;;5.97;2.60;;;;;;;-145.18;100.00;60484.78;5090091;28;20043;-71
2021/07/24 10:07:07;;;;;;;4.35;2.38;;;;;;;-145.18;100.00;60484.78;5083839;28;20040;-71
2021/07/24 10:09:36;;;;;;;4.97;2.53;;;;;;;-145.18;100.00;60484.78;5088922;28;20135;-71
2021/07/24 10:12:04;;;;;;;6.55;2.33;;;;;;;-145.18;100.00;60484.78;5082940;28;20012;-72
2021/07/24 10:14:30;;;;;;;6.22;2.53;;;;;;;-145.18;100.00;60484.78;5082849;28;20508;-71
2021/07/24 10:16:57;;;;;;;5.93;2.50;;;;;;;-145.18;100.00;60484.78;5081360;28;20347;-71
2021/07/24 10:19:25;;;;;;;6.88;2.90;;;;;;;-145.18;100.00;60484.78;5088004;28;20453;-71
2021/07/24 10:21:53;;;;;;;4.38;2.50;;;;;;;-145.18;100.00;60484.78;5068808;28;20358;-71
2021/07/24 10:24:19;;;;;;;4.95;2.50;;;;;;;-145.18;100.00;60484.78;5080893;28;20082;-71
2021/07/24 10:26:53;;;;;;;5.53;2.28;;;;;;;-145.18;100.00;60484.78;5080191;28;20028;-71
2021/07/24 10:29:25;;;;;;;6.30;2.90;;;;;;;-145.18;100.00;60484.78;5075186;28;20031;-71
2021/07/24 10:32:04;;;;;;;5.30;2.55;;;;;;;-145.18;100.00;60484.78;5081510;28;20249;-71
2021/07/24 10:34:32;;;;;;;4.93;2.50;;;;;;;-145.18;100.00;60484.78;5084143;28;20099;-71
2021/07/24 10:36:57;;;;;;;5.85;2.80;;;;;;;-145.18;100.00;60484.78;5082105;28;20020;-71
2021/07/24 10:39:23;;;;;;;6.65;2.90;;;;;;;-145.18;100.00;60484.78;5084260;28;20346;-71
2021/07/24 10:42:07;;;;;;;6.05;2.90;;;;;;;-145.18;100.00;60484.78;5080889;28;20268;-71
2021/07/24 10:44:40;;;;;;;5.00;2.53;;;;;;;-145.18;100.00;60484.78;5081604;28;20248;-71
2021/07/24 10:47:15;;;;;;;5.40;2.80;;;;;;;-145.18;100.00;60484.78;5083036;28;20434;-72
2021/07/24 10:49:59;;;;;;;7.93;3.33;;;;;;;-145.18;100.00;60484.78;5068600;28;20047;-71
2021/07/24 10:52:25;;;;;;;6.05;3.25;;;;;;;-145.18;100.00;60484.78;5080507;28;20020;-71
2021/07/24 10:55:12;;;;;;;6.10;2.83;;;;;;;-145.18;100.00;60484.78;5080460;28;20034;-72
2021/07/24 10:58:07;;;;;;;5.53;3.10;;;;;;;-145.18;100.00;60484.78;5079843;28;20024;-72
2021/07/24 11:00:34;;;;;;;6.68;2.60;;;;;;;-145.18;100.00;60484.78;5062733;28;20352;-74
2021/07/24 11:03:01;;;;;;;6.45;3.20;;;;;;;-145.18;100.00;60484.78;5090199;28;20036;-70
2021/07/24 11:05:28;;;;;;;5.38;2.80;;;;;;;-145.18;100.00;60484.78;5080207;28;20028;-70
2021/07/24 11:07:57;;;;;;;5.63;2.88;;;;;;;-145.18;100.00;60484.78;5083009;28;20074;-68